createdAt,value
2022-11-14T00:01:28.906Z,26.15
2022-11-14T00:03:57.078Z,26.14
2022-11-14T00:06:25.258Z,26.12
2022-11-14T00:08:53.443Z,25.93
2022-11-14T00:11:21.614Z,25.90
2022-11-14T00:13:49.792Z,25.92
2022-11-14T00:16:18.276Z,25.85
2022-11-14T00:18:46.357Z,25.96
2022-11-14T00:21:14.462Z,26.00
2022-11-14T00:23:42.727Z,25.93
2022-11-14T00:26:10.891Z,25.93
2022-11-14T00:28:39.170Z,25.91
2022-11-14T00:31:07.347Z,25.90
2022-11-14T00:33:35.627Z,25.89
2022-11-14T00:36:04.215Z,25.90
2022-11-14T00:38:32.688Z,25.89
2022-11-14T00:41:01.187Z,25.88
2022-11-14T00:43:29.443Z,25.88
2022-11-14T00:45:58.126Z,25.88
2022-11-14T00:48:28.222Z,25.85
2022-11-14T00:50:56.762Z,25.89
2022-11-14T00:53:25.047Z,26.02
2022-11-14T00:55:53.323Z,25.96
2022-11-14T00:58:21.605Z,25.90
2022-11-14T01:00:49.939Z,25.92
2022-11-14T01:03:18.473Z,25.92
2022-11-14T01:05:49.459Z,25.84
2022-11-14T01:08:19.748Z,25.81
2022-11-14T01:10:50.385Z,25.84
2022-11-14T01:13:19.662Z,25.83
2022-11-14T01:15:49.612Z,25.94
2022-11-14T01:18:22.005Z,25.99
2022-11-14T01:20:50.487Z,26.00
2022-11-14T01:23:19.381Z,25.99
2022-11-14T01:25:47.633Z,25.93
2022-11-14T01:28:18.816Z,25.92
2022-11-14T01:30:46.921Z,25.91
2022-11-14T01:33:15.035Z,25.83
2022-11-14T01:35:43.420Z,25.73
2022-11-14T01:38:14.119Z,25.70
2022-11-14T01:40:46.016Z,25.71
2022-11-14T01:43:17.262Z,25.61
2022-11-14T01:45:45.980Z,25.60
2022-11-14T01:48:33.278Z,25.56
2022-11-14T01:51:20.401Z,25.62
2022-11-14T01:53:53.388Z,25.56
2022-11-14T01:56:28.421Z,25.55
2022-11-14T01:59:07.677Z,25.61
2022-11-14T02:01:41.982Z,25.64
2022-11-14T02:04:15.256Z,25.60
2022-11-14T02:06:44.772Z,25.57
2022-11-14T02:09:13.214Z,25.52
2022-11-14T02:11:44.838Z,25.50
2022-11-14T02:14:13.279Z,25.55
2022-11-14T02:16:51.750Z,25.55
2022-11-14T02:19:50.366Z,25.57
2022-11-14T02:22:18.545Z,25.61
2022-11-14T02:24:47.251Z,25.58
2022-11-14T02:27:16.759Z,25.58
2022-11-14T02:29:45.138Z,25.61
2022-11-14T02:32:13.528Z,25.60
2022-11-14T02:34:41.996Z,25.55
2022-11-14T02:37:10.394Z,25.49
2022-11-14T02:39:38.655Z,25.47
2022-11-14T02:42:07.143Z,25.47
2022-11-14T02:44:35.640Z,25.48
2022-11-14T02:47:04.011Z,25.49
2022-11-14T02:49:32.808Z,25.47
2022-11-14T02:52:00.984Z,25.44
2022-11-14T02:54:29.162Z,25.46
2022-11-14T02:56:57.651Z,25.50
2022-11-14T02:59:25.824Z,25.47
2022-11-14T03:01:54.253Z,25.45
2022-11-14T03:04:22.590Z,25.50
2022-11-14T03:06:50.973Z,25.49
2022-11-14T03:09:20.462Z,25.52
2022-11-14T03:11:49.041Z,25.53
2022-11-14T03:14:20.315Z,25.52
2022-11-14T03:16:48.801Z,25.59
2022-11-14T03:19:17.084Z,25.60
2022-11-14T03:21:45.405Z,25.58
2022-11-14T03:24:14.729Z,25.52
2022-11-14T03:26:43.391Z,25.42
2022-11-14T03:29:11.740Z,25.40
2022-11-14T03:31:40.328Z,25.38
2022-11-14T03:34:10.145Z,25.32
2022-11-14T03:36:38.322Z,25.40
2022-11-14T03:39:07.113Z,25.41
2022-11-14T03:41:35.328Z,25.42
2022-11-14T03:44:03.994Z,25.36
2022-11-14T03:46:32.374Z,25.29
2022-11-14T03:49:02.193Z,25.30
2022-11-14T03:51:30.377Z,25.26
2022-11-14T03:53:59.257Z,25.21
2022-11-14T03:56:27.636Z,25.19
2022-11-14T03:58:58.580Z,25.21
2022-11-14T04:01:27.640Z,25.10
2022-11-14T04:03:56.149Z,25.05
2022-11-14T04:06:24.460Z,25.03
2022-11-14T04:08:52.931Z,24.99
2022-11-14T04:11:21.328Z,24.95
2022-11-14T04:13:50.480Z,24.88
2022-11-14T04:16:18.699Z,24.81
2022-11-14T04:18:46.870Z,24.84
2022-11-14T04:21:15.152Z,24.79
2022-11-14T04:23:43.846Z,24.79
2022-11-14T04:26:13.466Z,24.82
2022-11-14T04:28:41.729Z,24.80
2022-11-14T04:31:09.913Z,24.71
2022-11-14T04:33:38.091Z,24.68
2022-11-14T04:36:07.292Z,24.73
2022-11-14T04:38:35.573Z,24.78
2022-11-14T04:41:04.091Z,24.64
2022-11-14T04:43:32.678Z,24.63
2022-11-14T04:46:00.936Z,24.64
2022-11-14T04:48:29.321Z,24.64
2022-11-14T04:50:57.780Z,24.69
2022-11-14T04:53:26.399Z,24.69
2022-11-14T04:55:54.558Z,24.67
2022-11-14T04:58:22.806Z,24.66
2022-11-14T05:00:51.636Z,24.69
2022-11-14T05:03:19.703Z,24.70
2022-11-14T05:05:47.784Z,24.75
2022-11-14T05:08:15.965Z,24.74
2022-11-14T05:10:45.375Z,24.80
2022-11-14T05:13:13.549Z,24.72
2022-11-14T05:15:41.827Z,24.72
2022-11-14T05:18:10.129Z,24.69
2022-11-14T05:20:38.628Z,24.76
2022-11-14T05:23:06.731Z,24.76
2022-11-14T05:25:34.762Z,24.76
2022-11-14T05:28:02.801Z,24.78
2022-11-14T05:30:30.844Z,24.80
2022-11-14T05:32:58.850Z,24.86
2022-11-14T05:35:26.949Z,24.93
2022-11-14T05:37:59.074Z,24.99
2022-11-14T05:40:28.203Z,24.89
2022-11-14T05:42:56.395Z,24.94
2022-11-14T05:45:24.579Z,25.00
2022-11-14T05:47:52.956Z,24.96
2022-11-14T05:50:21.338Z,24.91
2022-11-14T05:52:49.421Z,24.96
2022-11-14T05:55:21.872Z,24.88
2022-11-14T05:57:53.040Z,24.85
2022-11-14T06:00:21.143Z,24.85
2022-11-14T06:02:55.366Z,24.78
2022-11-14T06:05:23.843Z,24.68
2022-11-14T06:07:59.183Z,24.67
2022-11-14T06:10:27.951Z,24.70
2022-11-14T06:12:56.264Z,24.69
2022-11-14T06:15:24.716Z,24.72
2022-11-14T06:17:55.965Z,24.72
2022-11-14T06:20:25.063Z,24.78
2022-11-14T06:22:56.427Z,24.78
2022-11-14T06:25:24.715Z,24.72
2022-11-14T06:27:53.078Z,24.69
2022-11-14T06:30:22.375Z,24.66
2022-11-14T06:32:50.839Z,24.74
2022-11-14T06:35:18.876Z,24.69
2022-11-14T06:37:46.895Z,24.63
2022-11-14T06:40:18.245Z,24.60
2022-11-14T06:42:46.268Z,24.49
2022-11-14T06:45:14.300Z,24.38
2022-11-14T06:47:42.496Z,24.41
2022-11-14T06:50:10.674Z,24.40
2022-11-14T06:52:38.830Z,24.43
2022-11-14T06:55:07.543Z,24.52
2022-11-14T06:57:35.928Z,24.57
2022-11-14T07:00:04.825Z,24.50
2022-11-14T07:02:33.169Z,24.56
2022-11-14T07:05:01.790Z,24.58
2022-11-14T07:07:29.903Z,24.59
2022-11-14T07:09:58.198Z,24.65
2022-11-14T07:12:26.529Z,24.71
2022-11-14T07:14:54.812Z,24.79
2022-11-14T07:17:27.145Z,25.07
2022-11-14T07:19:59.325Z,25.47
2022-11-14T07:22:27.770Z,25.72
2022-11-14T07:24:56.120Z,25.92
2022-11-14T07:27:24.206Z,26.19
2022-11-14T07:29:52.612Z,26.64
2022-11-14T07:32:20.645Z,26.96
2022-11-14T07:34:48.733Z,27.02
2022-11-14T07:37:17.446Z,27.03
2022-11-14T07:39:45.498Z,27.05
2022-11-14T07:42:13.879Z,27.05
2022-11-14T07:44:41.953Z,27.06
2022-11-14T07:47:10.033Z,27.04
2022-11-14T07:49:38.082Z,27.07
2022-11-14T07:52:06.190Z,27.06
2022-11-14T07:54:34.230Z,27.12
2022-11-14T07:57:02.574Z,27.19
2022-11-14T07:59:30.828Z,27.41
2022-11-14T08:01:59.005Z,27.52
2022-11-14T08:04:27.390Z,27.68
2022-11-14T08:06:55.805Z,27.82
2022-11-14T08:09:24.080Z,27.88
2022-11-14T08:11:52.281Z,27.94
2022-11-14T08:14:20.708Z,27.81
2022-11-14T08:16:50.832Z,27.72
2022-11-14T08:19:18.921Z,27.79
2022-11-14T08:21:47.202Z,27.80
2022-11-14T08:24:15.396Z,27.96
2022-11-14T08:26:43.543Z,28.25
2022-11-14T08:29:11.830Z,28.42
2022-11-14T08:31:40.005Z,28.57
2022-11-14T08:34:08.519Z,28.52
2022-11-14T08:36:36.774Z,28.32
2022-11-14T08:39:05.155Z,28.29
2022-11-14T08:41:33.741Z,28.33
2022-11-14T08:44:02.334Z,28.47
2022-11-14T08:46:30.518Z,28.56
2022-11-14T08:48:59.401Z,28.60
2022-11-14T08:51:27.819Z,28.64
2022-11-14T08:53:56.272Z,28.68
2022-11-14T08:56:24.550Z,28.61
2022-11-14T08:58:53.036Z,28.57
2022-11-14T09:01:21.100Z,28.50
2022-11-14T09:03:49.350Z,28.61
2022-11-14T09:06:17.905Z,28.57
2022-11-14T09:08:46.158Z,28.53
2022-11-14T09:11:18.078Z,28.61
2022-11-14T09:13:47.465Z,28.55
2022-11-14T09:16:15.709Z,28.72
2022-11-14T09:18:44.298Z,28.80
2022-11-14T09:21:12.818Z,28.98
2022-11-14T09:23:41.132Z,29.11
2022-11-14T09:26:10.170Z,29.19
2022-11-14T09:28:38.340Z,29.23
2022-11-14T09:31:09.945Z,29.11
2022-11-14T09:33:39.311Z,29.06
2022-11-14T09:36:10.692Z,29.31
2022-11-14T09:38:39.094Z,29.46
2022-11-14T09:41:24.140Z,29.66
2022-11-14T09:44:06.909Z,29.69
2022-11-14T09:46:45.236Z,29.55
2022-11-14T09:49:39.813Z,29.38
2022-11-14T09:52:29.263Z,29.36
2022-11-14T09:55:01.803Z,29.06
2022-11-14T09:57:30.385Z,29.16
2022-11-14T09:59:58.505Z,29.31
2022-11-14T10:02:40.556Z,29.41
2022-11-14T10:05:33.701Z,29.65
2022-11-14T10:08:29.556Z,29.52
2022-11-14T10:11:19.532Z,29.56
2022-11-14T10:14:03.286Z,29.46
2022-11-14T10:16:40.787Z,29.43
2022-11-14T10:19:30.804Z,29.62
2022-11-14T10:22:26.768Z,29.77
2022-11-14T10:25:26.906Z,29.86
2022-11-14T10:28:24.603Z,29.90
2022-11-14T10:31:40.058Z,29.92
2022-11-14T10:34:14.017Z,30.22
2022-11-14T10:36:48.287Z,30.08
2022-11-14T10:39:25.221Z,29.84
2022-11-14T10:41:59.804Z,29.79
2022-11-14T10:44:36.998Z,29.84
2022-11-14T10:47:13.400Z,29.68
2022-11-14T10:49:43.766Z,29.71
2022-11-14T10:52:20.489Z,29.84
2022-11-14T10:54:57.009Z,30.04
2022-11-14T10:57:25.410Z,30.20
2022-11-14T10:59:54.235Z,30.12
2022-11-14T11:02:23.289Z,29.98
2022-11-14T11:04:51.670Z,29.51
2022-11-14T11:07:25.591Z,29.59
2022-11-14T11:10:00.578Z,29.46
2022-11-14T11:12:38.013Z,29.43
2022-11-14T11:15:20.888Z,29.57
2022-11-14T11:18:00.164Z,29.86
2022-11-14T11:20:34.333Z,30.17
2022-11-14T11:23:11.337Z,30.13
2022-11-14T11:25:40.715Z,30.11
2022-11-14T11:28:15.696Z,30.05
2022-11-14T11:30:59.045Z,30.04
2022-11-14T11:33:28.929Z,29.94
2022-11-14T11:36:02.213Z,30.27
2022-11-14T11:38:34.919Z,30.21
2022-11-14T11:42:02.302Z,30.29
2022-11-14T11:44:18.174Z,30.30
2022-11-14T11:46:53.156Z,30.46
2022-11-14T11:49:33.921Z,30.62
2022-11-14T11:52:18.851Z,30.41
2022-11-14T11:54:57.698Z,30.47
2022-11-14T11:57:35.087Z,30.47
2022-11-14T12:00:19.818Z,30.23
2022-11-14T12:02:51.661Z,30.09
2022-11-14T12:05:25.828Z,30.10
2022-11-14T12:07:54.306Z,30.21
2022-11-14T12:10:26.683Z,30.22
2022-11-14T12:12:54.983Z,30.25
2022-11-14T12:15:41.258Z,30.23
2022-11-14T12:18:23.450Z,30.40
2022-11-14T12:21:16.708Z,30.47
2022-11-14T12:24:15.375Z,30.62
2022-11-14T12:27:15.724Z,30.79
2022-11-14T12:30:11.978Z,31.01
2022-11-14T12:32:47.867Z,30.76
2022-11-14T12:35:29.191Z,30.79
2022-11-14T12:37:59.421Z,30.70
2022-11-14T12:40:32.460Z,30.81
2022-11-14T12:43:02.470Z,30.66
2022-11-14T12:45:36.792Z,30.63
2022-11-14T12:48:24.000Z,30.72
2022-11-14T12:50:54.694Z,30.71
2022-11-14T12:53:31.871Z,30.65
2022-11-14T12:56:21.693Z,30.40
2022-11-14T12:59:01.808Z,30.52
2022-11-14T13:01:30.337Z,30.56
2022-11-14T13:04:23.358Z,30.56
2022-11-14T13:07:19.722Z,30.58
2022-11-14T13:10:13.762Z,30.39
2022-11-14T13:12:52.289Z,30.22
2022-11-14T13:15:49.223Z,30.16
2022-11-14T13:18:26.515Z,30.09
2022-11-14T13:21:03.530Z,30.17
2022-11-14T13:23:54.854Z,30.03
2022-11-14T13:26:26.032Z,30.06
2022-11-14T13:28:54.415Z,29.93
2022-11-14T13:31:36.650Z,29.91
2022-11-14T13:34:20.147Z,29.90
2022-11-14T13:36:54.063Z,30.10
2022-11-14T13:39:34.713Z,30.34
2022-11-14T13:42:40.742Z,30.37
2022-11-14T13:45:39.415Z,30.33
2022-11-14T13:48:49.634Z,30.26
2022-11-14T13:51:42.313Z,30.31
2022-11-14T13:54:17.989Z,30.30
2022-11-14T13:57:01.621Z,30.28
2022-11-14T13:59:56.598Z,30.33
2022-11-14T14:02:56.163Z,30.18
2022-11-14T14:05:46.151Z,30.13
2022-11-14T14:08:40.161Z,30.11
2022-11-14T14:11:14.128Z,29.67
2022-11-14T14:14:17.162Z,29.72
2022-11-14T14:17:05.942Z,29.74
2022-11-14T14:19:55.709Z,29.87
2022-11-14T14:22:41.403Z,29.70
2022-11-14T14:25:09.478Z,29.62
2022-11-14T14:28:09.500Z,29.62
2022-11-14T14:30:37.646Z,29.88
2022-11-14T14:33:11.234Z,30.08
2022-11-14T14:35:48.902Z,30.31
2022-11-14T14:38:28.475Z,30.45
2022-11-14T14:40:57.260Z,30.54
2022-11-14T14:43:34.864Z,30.53
2022-11-14T14:46:03.409Z,30.42
2022-11-14T14:48:34.115Z,30.17
2022-11-14T14:51:02.783Z,29.90
2022-11-14T14:53:33.897Z,29.98
2022-11-14T14:56:07.695Z,29.89
2022-11-14T14:58:36.494Z,29.89
2022-11-14T15:01:09.987Z,29.89
2022-11-14T15:03:44.797Z,29.69
2022-11-14T15:06:34.993Z,29.45
2022-11-14T15:09:09.266Z,29.49
2022-11-14T15:11:42.319Z,29.50
2022-11-14T15:14:17.320Z,29.31
2022-11-14T15:16:47.443Z,29.32
2022-11-14T15:19:19.281Z,29.12
2022-11-14T15:22:02.776Z,29.02
2022-11-14T15:24:31.784Z,28.95
2022-11-14T15:27:04.924Z,28.83
2022-11-14T15:29:33.458Z,29.00
2022-11-14T15:32:02.860Z,28.87
2022-11-14T15:34:36.304Z,28.82
2022-11-14T15:37:13.467Z,28.66
2022-11-14T15:39:43.911Z,28.54
2022-11-14T15:42:33.601Z,28.46
2022-11-14T15:45:01.929Z,28.40
2022-11-14T15:47:34.709Z,28.43
2022-11-14T15:50:12.633Z,28.23
2022-11-14T15:52:48.747Z,28.20
2022-11-14T15:55:20.175Z,28.26
2022-11-14T15:58:06.719Z,28.07
2022-11-14T16:00:47.383Z,28.05
2022-11-14T16:03:18.496Z,28.14
2022-11-14T16:05:46.738Z,27.96
2022-11-14T16:08:14.883Z,28.12
2022-11-14T16:10:43.162Z,28.08
2022-11-14T16:13:11.546Z,28.28
2022-11-14T16:15:39.932Z,28.43
2022-11-14T16:18:08.107Z,28.35
2022-11-14T16:20:36.512Z,28.34
2022-11-14T16:23:04.722Z,28.24
2022-11-14T16:25:34.488Z,28.30
2022-11-14T16:28:02.609Z,28.21
2022-11-14T16:30:30.961Z,28.16
2022-11-14T16:32:59.129Z,28.07
2022-11-14T16:35:28.183Z,28.23
2022-11-14T16:37:56.411Z,28.17
2022-11-14T16:40:27.153Z,28.17
2022-11-14T16:42:57.056Z,28.11
2022-11-14T16:45:26.609Z,28.03
2022-11-14T16:47:54.646Z,28.01
2022-11-14T16:50:22.816Z,28.03
2022-11-14T16:52:50.848Z,28.09
2022-11-14T16:55:18.901Z,28.13
2022-11-14T16:57:47.410Z,28.21
2022-11-14T17:00:16.338Z,28.10
2022-11-14T17:02:44.461Z,28.03
2022-11-14T17:05:13.042Z,28.07
2022-11-14T17:07:41.334Z,28.16
2022-11-14T17:10:09.988Z,28.12
2022-11-14T17:12:38.365Z,28.17
2022-11-14T17:15:07.010Z,28.23
2022-11-14T17:17:35.472Z,28.23
2022-11-14T17:20:03.915Z,28.13
2022-11-14T17:22:32.067Z,28.15
2022-11-14T17:25:00.086Z,28.16
2022-11-14T17:27:28.306Z,28.13
2022-11-14T17:29:56.437Z,28.18
2022-11-14T17:32:24.651Z,28.22
2022-11-14T17:34:52.722Z,28.22
2022-11-14T17:37:20.744Z,28.25
2022-11-14T17:39:48.842Z,28.24
2022-11-14T17:42:17.436Z,28.13
2022-11-14T17:44:45.481Z,28.10
2022-11-14T17:47:13.498Z,28.10
2022-11-14T17:49:41.615Z,28.09
2022-11-14T17:52:09.693Z,28.11
2022-11-14T17:54:37.912Z,28.07
2022-11-14T17:57:06.600Z,28.04
2022-11-14T17:59:34.663Z,28.01
2022-11-14T18:02:02.809Z,27.83
2022-11-14T18:04:31.377Z,27.91
2022-11-14T18:06:59.732Z,27.94
2022-11-14T18:09:27.792Z,28.03
2022-11-14T18:11:55.902Z,28.07
2022-11-14T18:14:23.910Z,28.06
2022-11-14T18:17:11.670Z,28.01
2022-11-14T18:19:40.261Z,28.04
2022-11-14T18:22:08.441Z,28.06
2022-11-14T18:24:36.532Z,28.09
2022-11-14T18:27:04.898Z,27.92
2022-11-14T18:29:32.899Z,27.95
2022-11-14T18:32:01.051Z,28.01
2022-11-14T18:34:29.433Z,28.05
2022-11-14T18:36:57.923Z,28.12
2022-11-14T18:39:25.919Z,28.13
2022-11-14T18:41:54.481Z,28.10
2022-11-14T18:44:22.663Z,28.12
2022-11-14T18:46:51.147Z,28.18
2022-11-14T18:49:20.142Z,28.20
2022-11-14T18:51:48.288Z,28.24
2022-11-14T18:54:16.630Z,28.31
2022-11-14T18:56:45.192Z,28.26
2022-11-14T18:59:13.349Z,28.30
2022-11-14T19:01:41.475Z,28.35
2022-11-14T19:04:11.592Z,28.37
2022-11-14T19:06:41.182Z,28.27
2022-11-14T19:09:12.170Z,28.23
2022-11-14T19:11:40.309Z,28.21
2022-11-14T19:14:08.916Z,28.19
2022-11-14T19:16:38.275Z,28.16
2022-11-14T19:19:07.519Z,28.12
2022-11-14T19:21:36.284Z,28.14
2022-11-14T19:24:05.070Z,28.17
2022-11-14T19:26:33.588Z,28.15
2022-11-14T19:29:07.078Z,28.12
2022-11-14T19:31:35.167Z,28.17
2022-11-14T19:34:03.188Z,28.20
2022-11-14T19:36:58.181Z,28.16
2022-11-14T19:39:20.477Z,28.15
2022-11-14T19:41:49.076Z,28.13
2022-11-14T19:44:17.128Z,28.17
2022-11-14T19:46:47.812Z,28.20
2022-11-14T19:49:16.339Z,28.25
2022-11-14T19:51:44.461Z,28.14
2022-11-14T19:54:12.571Z,27.97
2022-11-14T19:56:40.954Z,28.04
2022-11-14T19:59:14.419Z,28.09
2022-11-14T20:01:44.583Z,27.87
2022-11-14T20:04:13.121Z,27.86
2022-11-14T20:06:41.326Z,27.80
2022-11-14T20:09:10.491Z,27.76
2022-11-14T20:11:38.898Z,27.83
2022-11-14T20:14:07.247Z,27.85
2022-11-14T20:16:36.783Z,27.85
2022-11-14T20:19:05.261Z,27.88
2022-11-14T20:21:34.522Z,27.84
2022-11-14T20:24:02.954Z,27.79
2022-11-14T20:26:31.045Z,27.78
2022-11-14T20:28:59.501Z,27.78
2022-11-14T20:31:29.909Z,27.86
2022-11-14T20:33:57.977Z,27.92
2022-11-14T20:36:31.903Z,27.86
2022-11-14T20:39:03.466Z,27.74
2022-11-14T20:41:31.536Z,27.72
2022-11-14T20:44:01.474Z,27.69
2022-11-14T20:46:29.707Z,27.70
2022-11-14T20:48:57.745Z,27.71
2022-11-14T20:51:26.439Z,27.69
2022-11-14T20:53:55.528Z,27.65
2022-11-14T20:56:23.565Z,27.62
2022-11-14T20:58:51.672Z,27.64
2022-11-14T21:01:20.227Z,27.62
2022-11-14T21:03:48.772Z,27.53
2022-11-14T21:06:17.202Z,27.54
2022-11-14T21:08:45.592Z,27.59
2022-11-14T21:11:16.886Z,27.52
2022-11-14T21:13:45.027Z,27.41
2022-11-14T21:16:18.209Z,27.23
2022-11-14T21:18:48.241Z,27.08
2022-11-14T21:21:19.607Z,27.01
2022-11-14T21:23:48.015Z,26.98
2022-11-14T21:26:19.667Z,26.90
2022-11-14T21:28:49.749Z,26.88
2022-11-14T21:31:22.803Z,26.86
2022-11-14T21:33:54.389Z,26.86
2022-11-14T21:36:43.725Z,26.85
2022-11-14T21:39:11.257Z,26.84
2022-11-14T21:41:39.372Z,26.82
2022-11-14T21:44:11.846Z,26.83
2022-11-14T21:46:40.505Z,26.74
2022-11-14T21:49:09.255Z,26.82
2022-11-14T21:51:37.311Z,26.80
2022-11-14T21:54:05.899Z,26.79
2022-11-14T21:56:35.973Z,26.76
2022-11-14T21:59:11.968Z,26.74
2022-11-14T22:01:45.639Z,26.75
2022-11-14T22:04:13.855Z,26.80
2022-11-14T22:06:42.844Z,26.75
2022-11-14T22:09:11.031Z,26.71
2022-11-14T22:11:39.974Z,26.67
2022-11-14T22:14:08.504Z,26.67
2022-11-14T22:16:36.581Z,26.60
2022-11-14T22:19:05.908Z,26.53
2022-11-14T22:21:34.291Z,26.55
2022-11-14T22:24:02.351Z,26.51
2022-11-14T22:26:30.831Z,26.50
2022-11-14T22:28:59.033Z,26.60
2022-11-14T22:31:27.123Z,26.58
2022-11-14T22:33:58.399Z,26.53
2022-11-14T22:36:27.835Z,26.50
2022-11-14T22:38:57.189Z,26.48
2022-11-14T22:41:32.710Z,26.52
2022-11-14T22:44:01.897Z,26.54
2022-11-14T22:46:30.083Z,26.43
2022-11-14T22:48:58.539Z,26.26
2022-11-14T22:51:28.097Z,26.23
2022-11-14T22:53:58.205Z,26.24
2022-11-14T22:56:28.970Z,26.26
2022-11-14T22:58:59.817Z,26.30
2022-11-14T23:01:30.785Z,26.29
2022-11-14T23:04:02.117Z,26.27
2022-11-14T23:06:32.310Z,26.29
2022-11-14T23:09:01.864Z,26.26
2022-11-14T23:11:32.128Z,26.20
2022-11-14T23:14:01.491Z,26.14
2022-11-14T23:16:33.537Z,26.10
2022-11-14T23:19:04.636Z,26.02
2022-11-14T23:21:37.105Z,25.89
2022-11-14T23:24:07.973Z,25.92
2022-11-14T23:26:35.993Z,25.91
2022-11-14T23:29:04.686Z,25.87
2022-11-14T23:31:32.897Z,25.87
2022-11-14T23:34:01.070Z,25.83
2022-11-14T23:36:29.337Z,25.79
2022-11-14T23:38:57.534Z,25.70
2022-11-14T23:41:25.716Z,25.65
2022-11-14T23:43:53.999Z,25.71
2022-11-14T23:46:22.263Z,25.67
2022-11-14T23:48:50.397Z,25.71
2022-11-14T23:51:18.405Z,25.71
2022-11-14T23:53:46.806Z,25.67
2022-11-14T23:56:15.401Z,25.69
2022-11-14T23:58:43.793Z,25.65
